createdAt,value
2019-01-20T00:00:27.474Z,14.35
2019-01-20T00:02:53.859Z,15.08
2019-01-20T00:05:20.437Z,16.62
2019-01-20T00:07:46.854Z,12.63
2019-01-20T00:10:13.293Z,18.37
2019-01-20T00:12:39.725Z,15.95
2019-01-20T00:15:12.390Z,15.70
2019-01-20T00:17:38.802Z,16.82
2019-01-20T00:20:07.124Z,17.85
2019-01-20T00:22:33.445Z,22.35
2019-01-20T00:24:59.772Z,23.07
2019-01-20T00:27:26.043Z,14.13
2019-01-20T00:29:52.567Z,16.32
2019-01-20T00:32:23.903Z,18.67
2019-01-20T00:34:50.365Z,14.20
2019-01-20T00:37:16.819Z,13.35
2019-01-20T00:39:43.238Z,15.08
2019-01-20T00:42:09.690Z,21.17
2019-01-20T00:44:35.853Z,12.30
2019-01-20T00:47:02.192Z,15.40
2019-01-20T00:49:28.691Z,15.30
2019-01-20T00:51:55.019Z,13.70
2019-01-20T00:54:21.295Z,20.82
2019-01-20T00:56:47.662Z,16.20
2019-01-20T00:59:14.115Z,14.40
2019-01-20T01:01:40.407Z,17.48
2019-01-20T01:04:06.890Z,14.93
2019-01-20T01:06:33.083Z,18.50
2019-01-20T01:08:59.240Z,15.98
2019-01-20T01:11:31.559Z,15.70
2019-01-20T01:13:53.776Z,27.17
2019-01-20T01:16:20.072Z,20.12
2019-01-20T01:18:46.511Z,17.10
2019-01-20T01:21:12.875Z,20.48
2019-01-20T01:23:39.130Z,14.13
2019-01-20T01:26:05.599Z,15.48
2019-01-20T01:28:31.923Z,19.80
2019-01-20T01:30:58.597Z,15.30
2019-01-20T01:33:24.827Z,18.12
2019-01-20T01:35:51.164Z,13.03
2019-01-20T01:38:17.548Z,17.07
2019-01-20T01:40:44.183Z,17.10
2019-01-20T01:43:10.628Z,20.52
2019-01-20T01:45:38.968Z,18.07
2019-01-20T01:48:06.529Z,15.50
2019-01-20T01:50:32.851Z,20.08
2019-01-20T01:52:59.088Z,13.65
2019-01-20T01:55:27.343Z,18.75
2019-01-20T01:57:53.432Z,17.07
2019-01-20T02:00:21.421Z,11.75
2019-01-20T02:02:47.681Z,18.37
2019-01-20T02:05:14.049Z,16.65
2019-01-20T02:07:40.525Z,11.15
2019-01-20T02:10:12.588Z,15.60
2019-01-20T02:12:38.960Z,18.70
2019-01-20T02:15:07.466Z,15.23
2019-01-20T02:17:33.604Z,15.63
2019-01-20T02:19:59.785Z,17.62
2019-01-20T02:22:26.048Z,12.45
2019-01-20T02:24:52.315Z,20.92
2019-01-20T02:27:18.565Z,14.83
2019-01-20T02:29:44.750Z,22.25
2019-01-20T02:32:11.173Z,21.25
2019-01-20T02:34:37.497Z,12.78
2019-01-20T02:37:05.882Z,15.98
2019-01-20T02:39:32.019Z,21.85
2019-01-20T02:41:58.327Z,15.83
2019-01-20T02:44:24.578Z,13.83
2019-01-20T02:46:50.941Z,13.30
2019-01-20T02:49:17.179Z,18.75
2019-01-20T02:51:43.359Z,12.98
2019-01-20T02:54:09.591Z,17.40
2019-01-20T02:56:35.844Z,18.62
2019-01-20T02:59:02.273Z,13.65
2019-01-20T03:01:28.577Z,19.37
2019-01-20T03:03:55.058Z,8.50
2019-01-20T03:06:21.959Z,14.05
2019-01-20T03:08:48.237Z,10.18
2019-01-20T03:11:14.569Z,22.58
2019-01-20T03:13:43.926Z,10.32
2019-01-20T03:16:10.174Z,11.95
2019-01-20T03:18:36.983Z,14.03
2019-01-20T03:21:03.631Z,12.60
2019-01-20T03:23:29.950Z,15.95
2019-01-20T03:25:56.283Z,17.48
2019-01-20T03:28:22.548Z,11.63
2019-01-20T03:30:48.914Z,11.15
2019-01-20T03:33:15.267Z,20.37
2019-01-20T03:35:41.725Z,10.23
2019-01-20T03:38:08.163Z,9.98
2019-01-20T03:40:34.509Z,16.17
2019-01-20T03:43:00.780Z,9.63
2019-01-20T03:45:27.215Z,17.65
2019-01-20T03:47:53.692Z,12.88
2019-01-20T03:50:20.100Z,14.87
2019-01-20T03:52:46.633Z,12.23
2019-01-20T03:55:15.066Z,8.23
2019-01-20T03:57:41.298Z,11.88
2019-01-20T04:00:16.717Z,12.65
2019-01-20T04:02:43.424Z,11.78
2019-01-20T04:05:09.946Z,11.75
2019-01-20T04:07:36.230Z,10.00
2019-01-20T04:10:05.937Z,9.18
2019-01-20T04:12:32.354Z,11.38
2019-01-20T04:14:58.677Z,9.58
2019-01-20T04:17:25.072Z,10.40
2019-01-20T04:19:51.213Z,17.55
2019-01-20T04:22:17.712Z,11.10
2019-01-20T04:24:43.967Z,12.68
2019-01-20T04:27:10.391Z,13.62
2019-01-20T04:29:36.818Z,11.63
2019-01-20T04:32:03.121Z,13.72
2019-01-20T04:34:29.285Z,12.88
2019-01-20T04:36:55.683Z,10.65
2019-01-20T04:39:22.130Z,12.45
2019-01-20T04:41:48.464Z,12.37
2019-01-20T04:44:14.592Z,7.65
2019-01-20T04:47:02.842Z,7.83
2019-01-20T04:49:29.249Z,6.33
2019-01-20T04:51:55.787Z,6.87
2019-01-20T04:54:22.212Z,6.42
2019-01-20T04:56:48.588Z,8.28
2019-01-20T04:59:14.922Z,8.03
2019-01-20T05:01:41.175Z,8.48
2019-01-20T05:04:07.365Z,12.10
2019-01-20T05:06:34.024Z,8.38
2019-01-20T05:09:00.298Z,8.25
2019-01-20T05:11:26.711Z,7.05
2019-01-20T05:13:53.011Z,6.00
2019-01-20T05:16:19.436Z,5.10
2019-01-20T05:21:30.317Z,8.03
2019-01-20T05:23:56.496Z,6.45
2019-01-20T05:26:22.753Z,4.50
2019-01-20T05:28:48.959Z,10.55
2019-01-20T05:31:15.267Z,5.30
2019-01-20T05:33:44.517Z,9.65
2019-01-20T05:36:10.922Z,6.00
2019-01-20T05:38:37.157Z,8.33
2019-01-20T05:41:03.558Z,14.18
2019-01-20T05:43:29.951Z,5.22
2019-01-20T05:45:56.452Z,4.10
2019-01-20T05:48:22.951Z,5.45
2019-01-20T05:50:49.553Z,2.47
2019-01-20T05:53:15.894Z,5.80
2019-01-20T05:55:42.282Z,6.78
2019-01-20T05:58:08.645Z,3.37
2019-01-20T06:00:37.415Z,3.47
2019-01-20T06:03:03.827Z,4.78
2019-01-20T06:05:30.171Z,2.80
2019-01-20T06:07:56.654Z,5.33
2019-01-20T06:10:23.169Z,5.67
2019-01-20T06:12:53.915Z,4.35
2019-01-20T06:15:19.751Z,4.58
2019-01-20T06:17:46.289Z,3.72
2019-01-20T06:20:13.363Z,2.75
2019-01-20T06:22:39.717Z,4.55
2019-01-20T06:25:27.627Z,3.50
2019-01-20T06:27:54.052Z,5.65
2019-01-20T06:30:29.588Z,6.03
2019-01-20T06:32:55.772Z,4.55
2019-01-20T06:35:22.060Z,5.35
2019-01-20T06:37:48.147Z,4.53
2019-01-20T06:40:14.548Z,4.62
2019-01-20T06:42:40.614Z,3.80
2019-01-20T06:45:09.310Z,5.20
2019-01-20T06:47:55.274Z,3.33
2019-01-20T06:50:21.563Z,6.30
2019-01-20T06:52:47.747Z,3.80
2019-01-20T06:55:14.024Z,6.28
2019-01-20T06:57:40.332Z,6.10
2019-01-20T07:00:10.109Z,3.00
2019-01-20T07:02:36.196Z,2.20
2019-01-20T07:05:04.496Z,4.25
2019-01-20T07:07:31.683Z,9.55
2019-01-20T07:09:57.764Z,6.37
2019-01-20T07:12:24.917Z,8.45
2019-01-20T07:14:51.063Z,6.30
2019-01-20T07:17:17.128Z,10.13
2019-01-20T07:19:43.345Z,16.85
2019-01-20T07:22:09.424Z,8.75
2019-01-20T07:24:35.569Z,10.28
2019-01-20T07:27:01.752Z,4.47
2019-01-20T07:29:27.932Z,7.65
2019-01-20T07:31:54.019Z,7.58
2019-01-20T07:34:20.095Z,5.25
2019-01-20T07:36:46.178Z,5.92
2019-01-20T07:39:12.252Z,3.85
2019-01-20T07:41:38.322Z,7.60
2019-01-20T07:44:04.541Z,8.75
2019-01-20T07:46:30.648Z,7.30
2019-01-20T07:48:56.827Z,4.42
2019-01-20T07:51:23.023Z,5.42
2019-01-20T07:53:49.204Z,6.25
2019-01-20T07:56:15.343Z,4.40
2019-01-20T07:58:41.457Z,5.72
2019-01-20T08:01:07.524Z,7.85
2019-01-20T08:03:33.606Z,6.37
2019-01-20T08:05:59.678Z,5.37
2019-01-20T08:08:25.784Z,6.40
2019-01-20T08:10:51.871Z,4.47
2019-01-20T08:13:24.256Z,5.97
2019-01-20T08:15:45.928Z,5.12
2019-01-20T08:18:12.120Z,6.62
2019-01-20T08:20:38.216Z,7.92
2019-01-20T08:23:04.374Z,3.62
2019-01-20T08:25:30.533Z,6.20
2019-01-20T08:27:56.675Z,6.12
2019-01-20T08:30:24.568Z,5.55
2019-01-20T08:32:50.652Z,8.33
2019-01-20T08:35:16.721Z,5.90
2019-01-20T08:37:42.853Z,10.82
2019-01-20T08:40:14.116Z,8.83
2019-01-20T08:42:40.300Z,6.35
2019-01-20T08:45:22.136Z,6.90
2019-01-20T08:47:50.436Z,6.25
2019-01-20T08:50:16.532Z,5.53
2019-01-20T08:52:42.621Z,8.53
2019-01-20T08:55:09.006Z,9.25
2019-01-20T08:57:35.095Z,9.90
2019-01-20T09:00:01.568Z,9.03
2019-01-20T09:02:27.739Z,7.08
2019-01-20T09:04:53.848Z,5.80
2019-01-20T09:07:19.926Z,5.90
2019-01-20T09:09:46.016Z,5.33
2019-01-20T09:12:12.088Z,6.72
2019-01-20T09:14:38.199Z,6.95
2019-01-20T09:17:04.284Z,8.35
2019-01-20T09:19:30.355Z,9.75
2019-01-20T09:21:56.490Z,13.80
2019-01-20T09:24:22.614Z,6.90
2019-01-20T09:26:48.710Z,32.78
2019-01-20T09:29:14.795Z,10.55
2019-01-20T09:31:40.904Z,8.48
2019-01-20T09:34:06.976Z,5.28
2019-01-20T09:36:33.052Z,5.83
2019-01-20T09:38:59.143Z,8.43
2019-01-20T09:41:25.317Z,9.80
2019-01-20T09:43:51.401Z,7.28
2019-01-20T09:46:17.488Z,6.78
2019-01-20T09:48:43.584Z,7.58
2019-01-20T09:51:09.676Z,6.50
2019-01-20T09:53:35.747Z,5.53
2019-01-20T09:56:01.853Z,4.50
2019-01-20T09:58:27.923Z,8.43
2019-01-20T10:00:54.095Z,6.70
2019-01-20T10:03:20.182Z,5.60
2019-01-20T10:05:46.393Z,9.00
2019-01-20T10:08:12.687Z,4.65
2019-01-20T10:10:38.780Z,9.20
2019-01-20T10:13:04.980Z,5.80
2019-01-20T10:15:31.134Z,5.12
2019-01-20T10:17:57.273Z,8.78
2019-01-20T10:20:28.595Z,5.62
2019-01-20T10:22:54.826Z,6.37
2019-01-20T10:25:21.106Z,5.05
2019-01-20T10:27:47.196Z,6.33
2019-01-20T10:30:19.618Z,4.85
2019-01-20T10:32:48.031Z,6.60
2019-01-20T10:35:14.092Z,5.00
2019-01-20T10:37:40.375Z,7.33
2019-01-20T10:40:06.869Z,9.40
2019-01-20T10:42:32.940Z,6.90
2019-01-20T10:44:59.056Z,6.35
2019-01-20T10:47:25.167Z,7.95
2019-01-20T10:49:51.274Z,8.68
2019-01-20T10:52:17.381Z,9.38
2019-01-20T10:54:43.447Z,12.55
2019-01-20T10:57:09.525Z,7.03
2019-01-20T10:59:35.621Z,11.57
2019-01-20T11:02:01.801Z,8.60
2019-01-20T11:04:27.868Z,8.55
2019-01-20T11:06:54.078Z,10.68
2019-01-20T11:09:20.154Z,13.22
2019-01-20T11:11:46.220Z,11.93
2019-01-20T11:14:12.317Z,10.08
2019-01-20T11:16:38.485Z,12.10
2019-01-20T11:19:04.572Z,12.23
2019-01-20T11:21:30.648Z,10.32
2019-01-20T11:23:56.944Z,8.35
2019-01-20T11:26:23.315Z,8.20
2019-01-20T11:28:49.388Z,12.55
2019-01-20T11:31:15.484Z,15.80
2019-01-20T11:33:41.556Z,8.63
2019-01-20T11:36:07.746Z,8.35
2019-01-20T11:38:33.819Z,6.65
2019-01-20T11:40:59.931Z,7.22
2019-01-20T11:43:26.008Z,8.55
2019-01-20T11:45:52.113Z,5.35
2019-01-20T11:48:18.183Z,6.95
2019-01-20T11:50:44.260Z,6.55
2019-01-20T11:53:10.360Z,6.03
2019-01-20T11:55:36.445Z,23.32
2019-01-20T11:58:03.142Z,8.15
2019-01-20T12:00:31.545Z,7.28
2019-01-20T12:02:57.627Z,13.65
2019-01-20T12:05:23.819Z,5.25
2019-01-20T12:07:50.303Z,5.60
2019-01-20T12:10:17.019Z,7.72
2019-01-20T12:12:45.019Z,4.50
2019-01-20T12:15:12.731Z,13.70
2019-01-20T12:17:38.804Z,4.00
2019-01-20T12:20:24.781Z,5.47
2019-01-20T12:22:50.964Z,5.35
2019-01-20T12:25:18.358Z,7.25
2019-01-20T12:27:44.436Z,8.65
2019-01-20T12:30:17.028Z,6.28
2019-01-20T12:32:43.101Z,5.62
2019-01-20T12:35:09.172Z,6.15
2019-01-20T12:37:35.268Z,7.15
2019-01-20T12:40:01.559Z,8.75
2019-01-20T12:42:27.654Z,5.58
2019-01-20T12:44:53.726Z,6.80
2019-01-20T12:47:19.832Z,8.93
2019-01-20T12:49:45.904Z,13.00
2019-01-20T12:52:12.020Z,5.47
2019-01-20T12:54:38.208Z,8.15
2019-01-20T12:57:04.377Z,9.15
2019-01-20T12:59:30.476Z,9.10
2019-01-20T13:01:56.559Z,15.28
2019-01-20T13:04:22.770Z,7.72
2019-01-20T13:06:48.872Z,9.25
2019-01-20T13:09:14.939Z,10.00
2019-01-20T13:11:41.045Z,11.05
2019-01-20T13:14:07.131Z,12.07
2019-01-20T13:16:33.208Z,10.68
2019-01-20T13:18:59.302Z,8.48
2019-01-20T13:21:25.393Z,7.03
2019-01-20T13:23:51.497Z,12.03
2019-01-20T13:26:17.608Z,8.20
2019-01-20T13:28:43.700Z,11.30
2019-01-20T13:31:09.816Z,11.30
2019-01-20T13:33:35.893Z,8.68
2019-01-20T13:36:07.133Z,9.53
2019-01-20T13:38:30.980Z,8.88
2019-01-20T13:40:57.252Z,8.65
2019-01-20T13:43:23.348Z,11.03
2019-01-20T13:45:49.515Z,8.75
2019-01-20T13:48:15.606Z,6.87
2019-01-20T13:50:41.675Z,10.35
2019-01-20T13:53:07.858Z,11.63
2019-01-20T13:55:34.036Z,14.13
2019-01-20T13:58:00.140Z,10.98
2019-01-20T14:00:26.216Z,8.48
2019-01-20T14:02:52.426Z,10.20
2019-01-20T14:05:18.499Z,11.05
2019-01-20T14:07:44.592Z,8.40
2019-01-20T14:10:14.195Z,8.33
2019-01-20T14:13:00.154Z,9.10
2019-01-20T14:15:26.350Z,10.48
2019-01-20T14:17:52.418Z,8.23
2019-01-20T14:20:21.504Z,10.50
2019-01-20T14:22:48.016Z,10.80
2019-01-20T14:25:22.288Z,14.78
2019-01-20T14:30:40.204Z,11.78
2019-01-20T14:33:20.888Z,9.23
2019-01-20T14:36:00.471Z,14.15
2019-01-20T14:38:41.512Z,11.73
2019-01-20T14:44:07.154Z,13.45
2019-01-20T14:46:48.540Z,16.93
2019-01-20T14:49:29.914Z,18.98
2019-01-20T14:54:55.352Z,12.30
2019-01-20T15:00:21.197Z,13.35
2019-01-20T15:05:47.433Z,10.30
2019-01-20T15:11:11.733Z,14.85
2019-01-20T15:16:35.741Z,12.58
2019-01-20T15:22:01.080Z,13.85
2019-01-20T15:27:27.529Z,15.65
2019-01-20T15:32:52.638Z,24.45
2019-01-20T15:38:17.269Z,21.10
2019-01-20T15:40:56.767Z,17.65
2019-01-20T15:43:37.665Z,16.60
2019-01-20T15:49:02.993Z,17.42
2019-01-20T15:51:42.874Z,22.87
2019-01-20T15:54:23.915Z,15.58
2019-01-20T15:59:48.326Z,17.02
2019-01-20T16:02:28.509Z,17.85
2019-01-20T16:05:09.273Z,10.38
2019-01-20T16:10:34.784Z,14.93
2019-01-20T16:13:14.200Z,15.38
2019-01-20T16:15:54.326Z,19.87
2019-01-20T16:21:19.425Z,21.65
2019-01-20T16:23:59.177Z,22.05
2019-01-20T16:26:40.156Z,19.10
2019-01-20T16:32:05.321Z,17.95
2019-01-20T16:37:29.831Z,16.12
2019-01-20T16:40:10.248Z,20.00
2019-01-20T16:42:51.580Z,14.55
2019-01-20T16:45:34.087Z,20.25
2019-01-20T16:48:13.954Z,16.27
2019-01-20T16:50:54.127Z,14.85
2019-01-20T16:56:18.256Z,22.75
2019-01-20T17:01:42.137Z,19.57
2019-01-20T17:07:05.852Z,14.70
2019-01-20T17:12:31.188Z,25.02
2019-01-20T17:17:55.281Z,18.32
2019-01-20T17:20:36.642Z,24.63
2019-01-20T17:23:16.907Z,13.43
2019-01-20T17:28:41.606Z,16.48
2019-01-20T17:34:07.236Z,22.00
2019-01-20T17:36:46.714Z,18.75
2019-01-20T17:39:26.657Z,20.08
2019-01-20T17:44:51.917Z,23.05
2019-01-20T17:47:33.216Z,26.45
2019-01-20T17:50:14.660Z,24.20
2019-01-20T17:55:40.246Z,32.15
2019-01-20T18:01:04.660Z,32.28
2019-01-20T18:06:28.906Z,38.53
2019-01-20T18:09:09.933Z,32.20
2019-01-20T18:11:50.238Z,27.87
2019-01-20T18:17:14.727Z,28.10
2019-01-20T18:22:38.700Z,29.23
2019-01-20T18:28:02.965Z,29.98
2019-01-20T18:30:42.481Z,31.50
2019-01-20T18:33:23.496Z,31.70
2019-01-20T18:36:03.884Z,28.98
2019-01-20T18:38:43.337Z,39.65
2019-01-20T18:41:09.437Z,32.03
2019-01-20T18:43:55.405Z,39.40
2019-01-20T18:46:35.849Z,36.55
2019-01-20T18:49:15.961Z,34.08
2019-01-20T18:51:56.008Z,29.82
2019-01-20T18:57:21.666Z,29.27
2019-01-20T19:00:01.582Z,33.10
2019-01-20T19:02:41.741Z,30.95
2019-01-20T19:08:06.260Z,28.32
2019-01-20T19:10:45.817Z,33.10
2019-01-20T19:13:26.869Z,31.33
2019-01-20T19:18:52.505Z,32.60
2019-01-20T19:21:32.700Z,34.15
2019-01-20T19:26:57.415Z,34.45
2019-01-20T19:32:22.701Z,31.52
2019-01-20T19:37:33.688Z,29.63
2019-01-20T19:40:19.739Z,37.28
2019-01-20T19:42:59.491Z,33.92
2019-01-20T19:48:24.861Z,35.88
2019-01-20T19:53:49.352Z,37.90
2019-01-20T19:59:14.771Z,38.10
2019-01-20T20:04:39.932Z,40.80
2019-01-20T20:10:05.779Z,46.90
2019-01-20T20:15:29.861Z,49.77
2019-01-20T20:20:55.520Z,46.15
2019-01-20T20:26:05.754Z,37.50
2019-01-20T20:28:51.801Z,45.48
2019-01-20T20:31:37.809Z,44.63
2019-01-20T20:34:18.216Z,44.65
2019-01-20T20:39:42.422Z,56.25
2019-01-20T20:45:08.974Z,40.95
2019-01-20T20:47:49.237Z,39.80
2019-01-20T20:53:15.688Z,52.48
2019-01-20T20:58:40.218Z,47.78
2019-01-20T21:04:07.669Z,55.43
2019-01-20T21:09:32.185Z,54.40
2019-01-20T21:15:03.220Z,56.30
2019-01-20T21:20:25.066Z,54.98
2019-01-20T21:25:50.525Z,54.88
2019-01-20T21:31:15.855Z,56.58
2019-01-20T21:36:40.966Z,50.67
2019-01-20T21:42:07.645Z,51.90
2019-01-20T21:47:31.734Z,46.18
2019-01-20T21:50:11.100Z,54.23
2019-01-20T21:52:52.245Z,50.60
2019-01-20T21:58:17.972Z,48.48
2019-01-20T22:03:42.283Z,48.65
2019-01-20T22:09:06.793Z,55.75
2019-01-20T22:14:32.245Z,65.28
2019-01-20T22:19:58.793Z,47.90
2019-01-20T22:25:23.366Z,59.58
2019-01-20T22:28:03.274Z,49.30
2019-01-20T22:30:43.409Z,52.78
2019-01-20T22:36:07.613Z,50.03
2019-01-20T22:41:34.053Z,46.48
2019-01-20T22:47:00.330Z,49.93
2019-01-20T22:52:25.946Z,54.40
2019-01-20T22:57:50.977Z,50.58
2019-01-20T23:03:15.764Z,51.73
2019-01-20T23:08:40.996Z,47.48
2019-01-20T23:11:20.522Z,58.63
2019-01-20T23:14:00.681Z,50.38
2019-01-20T23:19:26.023Z,48.00
2019-01-20T23:24:50.489Z,52.43
2019-01-20T23:30:15.874Z,56.77
2019-01-20T23:35:41.385Z,53.45
2019-01-20T23:41:07.277Z,49.98
2019-01-20T23:46:32.973Z,50.60
2019-01-20T23:51:57.105Z,47.75
2019-01-20T23:57:21.993Z,47.85
